Terminal Aerodrome Forecast
Issued by NWS

Home | Current Version | Previous Version | Text Only | Print | Product List | Glossary Off
Versions: 1 2 3 4 5 6 7 8 9 10 11 12 13 14 15 16 17 18 19 20 21 22 23 24 25 26 27 28 29 30 31 32 33 34 35 36 37 38 39 40 41 42 43 44 45 46 47

081
FTUS43 KLOT 211731
TAFGYY
TAF
KGYY 211731Z 2118/2218 30015G25KT P6SM -RA BKN035 OVC080
      TEMPO 2118/2119 6SM -RA
     FM211900 30016G25KT P6SM OVC040
     FM220100 32014G22KT P6SM SCT040
     FM220400 32012KT P6SM SKC
     FM221500 29008KT P6SM SCT250=

USA.gov is the U.S. government's official web portal to all federal, state and local government web resources and services.